sensor_id;sensor_type;location;lat;lon;timestamp;P1;durP1;ratioP1;P2;durP2;ratioP2
59300;SDS011;45073;52.740;6.784;2023-01-20T00:00:10;12.45;;;5.93;;
59300;SDS011;45073;52.740;6.784;2023-01-20T00:02:36;14.30;;;6.80;;
59300;SDS011;45073;52.740;6.784;2023-01-20T00:05:02;14.10;;;6.70;;
59300;SDS011;45073;52.740;6.784;2023-01-20T00:07:28;13.65;;;6.75;;
59300;SDS011;45073;52.740;6.784;2023-01-20T00:09:54;14.80;;;6.50;;
59300;SDS011;45073;52.740;6.784;2023-01-20T00:12:19;13.65;;;6.15;;
59300;SDS011;45073;52.740;6.784;2023-01-20T00:14:45;14.45;;;5.80;;
59300;SDS011;45073;52.740;6.784;2023-01-20T00:17:11;12.43;;;5.05;;
59300;SDS011;45073;52.740;6.784;2023-01-20T00:19:37;12.88;;;6.13;;
59300;SDS011;45073;52.740;6.784;2023-01-20T00:22:03;11.95;;;5.90;;
59300;SDS011;45073;52.740;6.784;2023-01-20T00:24:28;11.13;;;5.50;;
59300;SDS011;45073;52.740;6.784;2023-01-20T00:26:54;11.73;;;5.18;;
59300;SDS011;45073;52.740;6.784;2023-01-20T00:29:20;13.80;;;5.68;;
59300;SDS011;45073;52.740;6.784;2023-01-20T00:31:45;12.27;;;5.93;;
59300;SDS011;45073;52.740;6.784;2023-01-20T00:34:11;11.40;;;5.30;;
59300;SDS011;45073;52.740;6.784;2023-01-20T00:36:36;10.73;;;5.03;;
59300;SDS011;45073;52.740;6.784;2023-01-20T00:39:02;12.88;;;6.32;;
59300;SDS011;45073;52.740;6.784;2023-01-20T00:41:28;12.80;;;6.07;;
59300;SDS011;45073;52.740;6.784;2023-01-20T00:43:54;12.32;;;5.20;;
59300;SDS011;45073;52.740;6.784;2023-01-20T00:46:20;13.10;;;6.28;;
59300;SDS011;45073;52.740;6.784;2023-01-20T00:48:47;11.40;;;5.07;;
59300;SDS011;45073;52.740;6.784;2023-01-20T00:51:13;14.63;;;6.88;;
59300;SDS011;45073;52.740;6.784;2023-01-20T00:53:39;14.68;;;7.13;;
59300;SDS011;45073;52.740;6.784;2023-01-20T00:56:05;13.95;;;7.63;;
59300;SDS011;45073;52.740;6.784;2023-01-20T00:58:31;16.13;;;7.82;;
59300;SDS011;45073;52.740;6.784;2023-01-20T01:00:57;18.13;;;8.55;;
59300;SDS011;45073;52.740;6.784;2023-01-20T01:03:22;16.48;;;8.77;;
59300;SDS011;45073;52.740;6.784;2023-01-20T01:05:48;14.80;;;8.23;;
59300;SDS011;45073;52.740;6.784;2023-01-20T01:08:14;17.17;;;8.93;;
59300;SDS011;45073;52.740;6.784;2023-01-20T01:10:40;16.95;;;8.73;;
59300;SDS011;45073;52.740;6.784;2023-01-20T01:13:06;13.35;;;6.57;;
59300;SDS011;45073;52.740;6.784;2023-01-20T01:15:32;17.73;;;8.00;;
59300;SDS011;45073;52.740;6.784;2023-01-20T01:17:58;16.08;;;7.55;;
59300;SDS011;45073;52.740;6.784;2023-01-20T01:20:24;16.00;;;7.80;;
59300;SDS011;45073;52.740;6.784;2023-01-20T01:22:50;15.20;;;7.22;;
59300;SDS011;45073;52.740;6.784;2023-01-20T01:25:16;16.13;;;7.45;;
59300;SDS011;45073;52.740;6.784;2023-01-20T01:27:42;17.27;;;7.03;;
59300;SDS011;45073;52.740;6.784;2023-01-20T01:30:08;15.07;;;7.43;;
59300;SDS011;45073;52.740;6.784;2023-01-20T01:32:34;13.85;;;6.95;;
59300;SDS011;45073;52.740;6.784;2023-01-20T01:34:59;15.00;;;7.57;;
59300;SDS011;45073;52.740;6.784;2023-01-20T01:37:26;15.18;;;6.95;;
59300;SDS011;45073;52.740;6.784;2023-01-20T01:39:52;14.60;;;6.07;;
59300;SDS011;45073;52.740;6.784;2023-01-20T01:42:18;13.75;;;6.95;;
59300;SDS011;45073;52.740;6.784;2023-01-20T01:48:00;10.77;;;5.32;;
59300;SDS011;45073;52.740;6.784;2023-01-20T01:50:28;12.68;;;6.22;;
59300;SDS011;45073;52.740;6.784;2023-01-20T01:53:03;13.60;;;6.65;;
59300;SDS011;45073;52.740;6.784;2023-01-20T01:55:30;15.18;;;7.18;;
59300;SDS011;45073;52.740;6.784;2023-01-20T01:57:59;10.68;;;5.40;;
59300;SDS011;45073;52.740;6.784;2023-01-20T02:00:26;13.52;;;6.20;;
59300;SDS011;45073;52.740;6.784;2023-01-20T02:02:52;13.60;;;6.85;;
59300;SDS011;45073;52.740;6.784;2023-01-20T02:05:20;12.93;;;6.45;;
59300;SDS011;45073;52.740;6.784;2023-01-20T02:07:47;13.55;;;6.80;;
59300;SDS011;45073;52.740;6.784;2023-01-20T02:10:14;12.50;;;5.65;;
59300;SDS011;45073;52.740;6.784;2023-01-20T02:12:40;11.57;;;6.13;;
59300;SDS011;45073;52.740;6.784;2023-01-20T02:15:08;11.50;;;6.10;;
59300;SDS011;45073;52.740;6.784;2023-01-20T02:17:37;10.73;;;4.72;;
59300;SDS011;45073;52.740;6.784;2023-01-20T02:37:24;12.10;;;5.10;;
59300;SDS011;45073;52.740;6.784;2023-01-20T02:42:56;10.25;;;5.43;;
59300;SDS011;45073;52.740;6.784;2023-01-20T02:45:44;13.75;;;6.50;;
59300;SDS011;45073;52.740;6.784;2023-01-20T02:48:35;13.02;;;7.45;;
59300;SDS011;45073;52.740;6.784;2023-01-20T02:51:17;14.63;;;7.05;;
59300;SDS011;45073;52.740;6.784;2023-01-20T02:53:49;14.05;;;6.88;;
59300;SDS011;45073;52.740;6.784;2023-01-20T02:56:18;13.77;;;7.00;;
59300;SDS011;45073;52.740;6.784;2023-01-20T02:58:51;16.13;;;7.35;;
59300;SDS011;45073;52.740;6.784;2023-01-20T03:01:27;15.38;;;6.70;;
59300;SDS011;45073;52.740;6.784;2023-01-20T03:04:04;13.55;;;7.10;;
59300;SDS011;45073;52.740;6.784;2023-01-20T03:06:34;12.57;;;6.13;;
59300;SDS011;45073;52.740;6.784;2023-01-20T03:09:04;12.98;;;5.78;;
59300;SDS011;45073;52.740;6.784;2023-01-20T03:11:32;12.73;;;5.97;;
59300;SDS011;45073;52.740;6.784;2023-01-20T03:14:02;13.75;;;7.70;;
59300;SDS011;45073;52.740;6.784;2023-01-20T03:16:31;14.38;;;7.05;;
59300;SDS011;45073;52.740;6.784;2023-01-20T03:18:57;11.00;;;5.88;;
59300;SDS011;45073;52.740;6.784;2023-01-20T03:21:22;12.55;;;6.15;;
59300;SDS011;45073;52.740;6.784;2023-01-20T03:23:52;12.60;;;6.03;;
59300;SDS011;45073;52.740;6.784;2023-01-20T03:28:47;12.80;;;5.95;;
59300;SDS011;45073;52.740;6.784;2023-01-20T03:31:20;14.50;;;6.20;;
59300;SDS011;45073;52.740;6.784;2023-01-20T03:33:53;11.88;;;6.35;;
59300;SDS011;45073;52.740;6.784;2023-01-20T03:36:23;13.48;;;6.43;;
59300;SDS011;45073;52.740;6.784;2023-01-20T03:38:51;14.23;;;6.65;;
59300;SDS011;45073;52.740;6.784;2023-01-20T03:49:35;15.63;;;6.07;;
59300;SDS011;45073;52.740;6.784;2023-01-20T03:52:17;12.05;;;5.70;;
59300;SDS011;45073;52.740;6.784;2023-01-20T03:54:55;12.63;;;6.20;;
59300;SDS011;45073;52.740;6.784;2023-01-20T03:57:34;14.45;;;6.82;;
59300;SDS011;45073;52.740;6.784;2023-01-20T04:00:06;13.75;;;7.25;;
59300;SDS011;45073;52.740;6.784;2023-01-20T04:02:34;14.68;;;7.05;;
59300;SDS011;45073;52.740;6.784;2023-01-20T04:05:02;13.90;;;7.20;;
59300;SDS011;45073;52.740;6.784;2023-01-20T04:07:29;15.15;;;6.30;;
59300;SDS011;45073;52.740;6.784;2023-01-20T04:09:57;13.07;;;6.78;;
59300;SDS011;45073;52.740;6.784;2023-01-20T04:12:29;13.73;;;6.93;;
59300;SDS011;45073;52.740;6.784;2023-01-20T04:14:55;14.48;;;7.65;;
59300;SDS011;45073;52.740;6.784;2023-01-20T04:17:25;12.82;;;6.78;;
59300;SDS011;45073;52.740;6.784;2023-01-20T04:19:52;15.77;;;6.88;;
59300;SDS011;45073;52.740;6.784;2023-01-20T04:22:19;12.32;;;6.03;;
59300;SDS011;45073;52.740;6.784;2023-01-20T04:24:53;12.98;;;5.70;;
59300;SDS011;45073;52.740;6.784;2023-01-20T04:27:32;12.55;;;5.97;;
59300;SDS011;45073;52.740;6.784;2023-01-20T04:29:58;12.20;;;5.80;;
59300;SDS011;45073;52.740;6.784;2023-01-20T04:32:23;13.73;;;6.40;;
59300;SDS011;45073;52.740;6.784;2023-01-20T04:34:49;12.95;;;6.13;;
59300;SDS011;45073;52.740;6.784;2023-01-20T04:37:16;13.43;;;7.13;;
59300;SDS011;45073;52.740;6.784;2023-01-20T04:39:41;12.70;;;6.25;;
59300;SDS011;45073;52.740;6.784;2023-01-20T04:42:08;14.43;;;6.68;;
59300;SDS011;45073;52.740;6.784;2023-01-20T04:44:34;16.40;;;7.53;;
59300;SDS011;45073;52.740;6.784;2023-01-20T04:47:00;14.43;;;6.95;;
59300;SDS011;45073;52.740;6.784;2023-01-20T04:49:25;16.80;;;7.75;;
59300;SDS011;45073;52.740;6.784;2023-01-20T04:51:51;15.68;;;7.63;;
59300;SDS011;45073;52.740;6.784;2023-01-20T04:54:17;15.65;;;7.28;;
59300;SDS011;45073;52.740;6.784;2023-01-20T04:56:42;15.73;;;7.68;;
59300;SDS011;45073;52.740;6.784;2023-01-20T04:59:08;14.52;;;7.13;;
59300;SDS011;45073;52.740;6.784;2023-01-20T05:01:34;13.45;;;6.07;;
59300;SDS011;45073;52.740;6.784;2023-01-20T05:03:59;15.38;;;7.78;;
59300;SDS011;45073;52.740;6.784;2023-01-20T05:06:25;13.57;;;6.97;;
59300;SDS011;45073;52.740;6.784;2023-01-20T05:08:50;18.90;;;8.88;;
59300;SDS011;45073;52.740;6.784;2023-01-20T05:11:16;17.75;;;8.48;;
59300;SDS011;45073;52.740;6.784;2023-01-20T05:13:41;15.80;;;7.95;;
59300;SDS011;45073;52.740;6.784;2023-01-20T05:16:08;18.50;;;8.18;;
59300;SDS011;45073;52.740;6.784;2023-01-20T05:18:34;18.90;;;9.43;;
59300;SDS011;45073;52.740;6.784;2023-01-20T05:21:00;16.15;;;7.63;;
59300;SDS011;45073;52.740;6.784;2023-01-20T05:23:25;15.45;;;7.50;;
59300;SDS011;45073;52.740;6.784;2023-01-20T05:25:51;15.30;;;7.35;;
59300;SDS011;45073;52.740;6.784;2023-01-20T05:28:17;18.65;;;9.10;;
59300;SDS011;45073;52.740;6.784;2023-01-20T05:30:44;15.45;;;7.30;;
59300;SDS011;45073;52.740;6.784;2023-01-20T05:33:10;17.67;;;8.82;;
59300;SDS011;45073;52.740;6.784;2023-01-20T05:35:39;20.23;;;10.02;;
59300;SDS011;45073;52.740;6.784;2023-01-20T05:38:04;18.80;;;8.43;;
59300;SDS011;45073;52.740;6.784;2023-01-20T05:40:30;21.67;;;10.13;;
59300;SDS011;45073;52.740;6.784;2023-01-20T05:43:02;20.05;;;9.98;;
59300;SDS011;45073;52.740;6.784;2023-01-20T05:45:28;16.73;;;7.73;;
59300;SDS011;45073;52.740;6.784;2023-01-20T05:47:55;19.00;;;10.65;;
59300;SDS011;45073;52.740;6.784;2023-01-20T05:50:22;19.65;;;10.13;;
59300;SDS011;45073;52.740;6.784;2023-01-20T05:52:49;21.90;;;10.70;;
59300;SDS011;45073;52.740;6.784;2023-01-20T05:55:14;22.83;;;10.40;;
59300;SDS011;45073;52.740;6.784;2023-01-20T05:57:40;24.00;;;11.07;;
59300;SDS011;45073;52.740;6.784;2023-01-20T06:00:06;24.98;;;11.18;;
59300;SDS011;45073;52.740;6.784;2023-01-20T06:02:32;22.25;;;10.38;;
59300;SDS011;45073;52.740;6.784;2023-01-20T06:04:58;20.02;;;9.68;;
59300;SDS011;45073;52.740;6.784;2023-01-20T06:07:26;22.13;;;9.95;;
59300;SDS011;45073;52.740;6.784;2023-01-20T06:09:52;27.42;;;12.25;;
59300;SDS011;45073;52.740;6.784;2023-01-20T06:12:18;25.38;;;12.75;;
59300;SDS011;45073;52.740;6.784;2023-01-20T06:14:44;24.58;;;12.57;;
59300;SDS011;45073;52.740;6.784;2023-01-20T06:17:09;28.13;;;13.50;;
59300;SDS011;45073;52.740;6.784;2023-01-20T06:19:35;22.48;;;11.73;;
59300;SDS011;45073;52.740;6.784;2023-01-20T06:22:00;27.95;;;13.43;;
59300;SDS011;45073;52.740;6.784;2023-01-20T06:24:26;26.23;;;13.32;;
59300;SDS011;45073;52.740;6.784;2023-01-20T06:26:52;26.35;;;13.05;;
59300;SDS011;45073;52.740;6.784;2023-01-20T06:29:18;25.23;;;12.57;;
59300;SDS011;45073;52.740;6.784;2023-01-20T06:31:44;28.48;;;13.13;;
59300;SDS011;45073;52.740;6.784;2023-01-20T06:34:10;25.40;;;12.30;;
59300;SDS011;45073;52.740;6.784;2023-01-20T06:36:36;26.63;;;14.13;;
59300;SDS011;45073;52.740;6.784;2023-01-20T06:39:02;24.40;;;12.38;;
59300;SDS011;45073;52.740;6.784;2023-01-20T06:41:28;27.52;;;12.40;;
59300;SDS011;45073;52.740;6.784;2023-01-20T06:43:53;23.25;;;12.60;;
59300;SDS011;45073;52.740;6.784;2023-01-20T06:46:19;27.88;;;13.68;;
59300;SDS011;45073;52.740;6.784;2023-01-20T06:48:45;29.05;;;13.95;;
59300;SDS011;45073;52.740;6.784;2023-01-20T06:51:12;28.33;;;12.85;;
59300;SDS011;45073;52.740;6.784;2023-01-20T06:53:39;28.90;;;13.10;;
59300;SDS011;45073;52.740;6.784;2023-01-20T06:56:05;23.63;;;12.95;;
59300;SDS011;45073;52.740;6.784;2023-01-20T06:58:32;30.00;;;14.30;;
59300;SDS011;45073;52.740;6.784;2023-01-20T07:01:02;29.52;;;13.77;;
59300;SDS011;45073;52.740;6.784;2023-01-20T07:03:33;30.15;;;15.13;;
59300;SDS011;45073;52.740;6.784;2023-01-20T07:06:01;28.63;;;14.18;;
59300;SDS011;45073;52.740;6.784;2023-01-20T07:08:28;28.27;;;14.77;;
59300;SDS011;45073;52.740;6.784;2023-01-20T07:10:54;28.42;;;14.68;;
59300;SDS011;45073;52.740;6.784;2023-01-20T07:13:20;31.35;;;14.45;;
59300;SDS011;45073;52.740;6.784;2023-01-20T07:15:46;29.45;;;14.18;;
59300;SDS011;45073;52.740;6.784;2023-01-20T07:18:12;29.33;;;14.20;;
59300;SDS011;45073;52.740;6.784;2023-01-20T07:20:37;31.90;;;14.93;;
59300;SDS011;45073;52.740;6.784;2023-01-20T07:23:03;28.85;;;14.75;;
59300;SDS011;45073;52.740;6.784;2023-01-20T07:25:29;26.80;;;13.98;;
59300;SDS011;45073;52.740;6.784;2023-01-20T07:27:55;31.77;;;15.25;;
59300;SDS011;45073;52.740;6.784;2023-01-20T07:30:23;35.03;;;13.18;;
59300;SDS011;45073;52.740;6.784;2023-01-20T07:32:49;29.70;;;15.02;;
59300;SDS011;45073;52.740;6.784;2023-01-20T07:35:15;29.27;;;13.68;;
59300;SDS011;45073;52.740;6.784;2023-01-20T07:37:41;30.60;;;13.40;;
59300;SDS011;45073;52.740;6.784;2023-01-20T07:40:07;29.13;;;13.40;;
59300;SDS011;45073;52.740;6.784;2023-01-20T07:42:36;30.83;;;12.48;;
59300;SDS011;45073;52.740;6.784;2023-01-20T07:45:02;26.58;;;12.57;;
59300;SDS011;45073;52.740;6.784;2023-01-20T07:47:29;26.75;;;12.82;;
59300;SDS011;45073;52.740;6.784;2023-01-20T07:49:55;31.50;;;14.52;;
59300;SDS011;45073;52.740;6.784;2023-01-20T07:52:21;28.23;;;14.20;;
59300;SDS011;45073;52.740;6.784;2023-01-20T07:54:46;30.10;;;14.38;;
59300;SDS011;45073;52.740;6.784;2023-01-20T07:57:12;26.65;;;14.32;;
59300;SDS011;45073;52.740;6.784;2023-01-20T07:59:38;34.55;;;14.38;;
59300;SDS011;45073;52.740;6.784;2023-01-20T08:02:03;29.80;;;14.40;;
59300;SDS011;45073;52.740;6.784;2023-01-20T08:04:29;29.20;;;13.23;;
59300;SDS011;45073;52.740;6.784;2023-01-20T08:06:55;27.52;;;15.07;;
59300;SDS011;45073;52.740;6.784;2023-01-20T08:09:20;23.98;;;12.57;;
59300;SDS011;45073;52.740;6.784;2023-01-20T08:11:46;35.70;;;14.35;;
59300;SDS011;45073;52.740;6.784;2023-01-20T08:14:12;28.08;;;13.63;;
59300;SDS011;45073;52.740;6.784;2023-01-20T08:16:37;27.67;;;11.82;;
59300;SDS011;45073;52.740;6.784;2023-01-20T08:19:03;30.55;;;13.75;;
59300;SDS011;45073;52.740;6.784;2023-01-20T08:21:29;28.17;;;13.52;;
59300;SDS011;45073;52.740;6.784;2023-01-20T08:23:56;27.27;;;12.80;;
59300;SDS011;45073;52.740;6.784;2023-01-20T08:26:24;28.40;;;12.80;;
59300;SDS011;45073;52.740;6.784;2023-01-20T08:28:52;24.27;;;11.93;;
59300;SDS011;45073;52.740;6.784;2023-01-20T08:31:19;28.98;;;13.27;;
59300;SDS011;45073;52.740;6.784;2023-01-20T08:33:47;28.15;;;14.50;;
59300;SDS011;45073;52.740;6.784;2023-01-20T08:36:26;26.40;;;12.30;;
59300;SDS011;45073;52.740;6.784;2023-01-20T08:38:58;27.90;;;13.38;;
59300;SDS011;45073;52.740;6.784;2023-01-20T08:41:27;25.80;;;13.68;;
59300;SDS011;45073;52.740;6.784;2023-01-20T08:43:56;28.00;;;13.90;;
59300;SDS011;45073;52.740;6.784;2023-01-20T08:46:23;27.33;;;12.18;;
59300;SDS011;45073;52.740;6.784;2023-01-20T08:48:49;26.63;;;11.90;;
59300;SDS011;45073;52.740;6.784;2023-01-20T08:51:16;24.30;;;12.35;;
59300;SDS011;45073;52.740;6.784;2023-01-20T08:53:44;28.80;;;14.18;;
59300;SDS011;45073;52.740;6.784;2023-01-20T08:56:10;28.95;;;13.93;;
59300;SDS011;45073;52.740;6.784;2023-01-20T08:58:40;30.63;;;15.27;;
59300;SDS011;45073;52.740;6.784;2023-01-20T09:01:16;31.67;;;13.25;;
59300;SDS011;45073;52.740;6.784;2023-01-20T09:03:43;28.02;;;13.63;;
59300;SDS011;45073;52.740;6.784;2023-01-20T09:06:09;25.30;;;12.82;;
59300;SDS011;45073;52.740;6.784;2023-01-20T09:08:35;31.05;;;13.57;;
59300;SDS011;45073;52.740;6.784;2023-01-20T09:11:03;28.42;;;13.43;;
59300;SDS011;45073;52.740;6.784;2023-01-20T09:13:30;33.72;;;14.63;;
59300;SDS011;45073;52.740;6.784;2023-01-20T09:15:56;31.52;;;13.50;;
59300;SDS011;45073;52.740;6.784;2023-01-20T09:18:22;28.90;;;12.55;;
59300;SDS011;45073;52.740;6.784;2023-01-20T09:20:47;29.80;;;14.02;;
59300;SDS011;45073;52.740;6.784;2023-01-20T09:23:13;29.83;;;12.80;;
59300;SDS011;45073;52.740;6.784;2023-01-20T09:25:39;32.05;;;14.25;;
59300;SDS011;45073;52.740;6.784;2023-01-20T09:28:04;32.58;;;16.02;;
59300;SDS011;45073;52.740;6.784;2023-01-20T09:30:30;31.05;;;13.75;;
59300;SDS011;45073;52.740;6.784;2023-01-20T09:32:56;29.88;;;14.32;;
59300;SDS011;45073;52.740;6.784;2023-01-20T09:35:24;33.95;;;14.27;;
59300;SDS011;45073;52.740;6.784;2023-01-20T09:37:50;33.00;;;14.50;;
59300;SDS011;45073;52.740;6.784;2023-01-20T09:40:39;33.78;;;15.27;;
59300;SDS011;45073;52.740;6.784;2023-01-20T09:52:01;31.85;;;14.18;;
59300;SDS011;45073;52.740;6.784;2023-01-20T09:54:54;32.05;;;13.43;;
59300;SDS011;45073;52.740;6.784;2023-01-20T09:57:24;37.05;;;15.02;;
59300;SDS011;45073;52.740;6.784;2023-01-20T09:59:59;36.63;;;15.15;;
59300;SDS011;45073;52.740;6.784;2023-01-20T10:02:30;31.17;;;13.60;;
59300;SDS011;45073;52.740;6.784;2023-01-20T10:05:01;27.80;;;13.52;;
59300;SDS011;45073;52.740;6.784;2023-01-20T10:13:06;29.17;;;12.30;;
59300;SDS011;45073;52.740;6.784;2023-01-20T10:15:39;27.92;;;12.95;;
59300;SDS011;45073;52.740;6.784;2023-01-20T10:18:10;28.90;;;12.95;;
59300;SDS011;45073;52.740;6.784;2023-01-20T10:20:44;27.55;;;11.88;;
59300;SDS011;45073;52.740;6.784;2023-01-20T10:23:16;27.60;;;13.80;;
59300;SDS011;45073;52.740;6.784;2023-01-20T10:25:51;30.48;;;11.52;;
59300;SDS011;45073;52.740;6.784;2023-01-20T10:28:39;28.08;;;12.68;;
59300;SDS011;45073;52.740;6.784;2023-01-20T10:31:13;29.20;;;12.52;;
59300;SDS011;45073;52.740;6.784;2023-01-20T10:33:45;29.63;;;12.53;;
59300;SDS011;45073;52.740;6.784;2023-01-20T10:36:17;27.60;;;12.27;;
59300;SDS011;45073;52.740;6.784;2023-01-20T10:41:21;28.63;;;12.90;;
59300;SDS011;45073;52.740;6.784;2023-01-20T10:44:04;28.13;;;12.23;;
59300;SDS011;45073;52.740;6.784;2023-01-20T10:56:57;31.77;;;12.75;;
59300;SDS011;45073;52.740;6.784;2023-01-20T10:59:41;31.85;;;13.98;;
59300;SDS011;45073;52.740;6.784;2023-01-20T11:02:14;28.05;;;13.57;;
59300;SDS011;45073;52.740;6.784;2023-01-20T11:04:45;32.50;;;12.40;;
59300;SDS011;45073;52.740;6.784;2023-01-20T11:07:16;26.83;;;11.48;;
59300;SDS011;45073;52.740;6.784;2023-01-20T11:09:43;27.40;;;11.55;;
59300;SDS011;45073;52.740;6.784;2023-01-20T11:12:13;28.90;;;12.05;;
59300;SDS011;45073;52.740;6.784;2023-01-20T11:14:42;28.50;;;12.88;;
59300;SDS011;45073;52.740;6.784;2023-01-20T11:17:13;27.50;;;11.68;;
59300;SDS011;45073;52.740;6.784;2023-01-20T11:22:12;29.23;;;11.73;;
59300;SDS011;45073;52.740;6.784;2023-01-20T11:24:44;26.70;;;11.95;;
59300;SDS011;45073;52.740;6.784;2023-01-20T11:27:17;27.60;;;12.32;;
59300;SDS011;45073;52.740;6.784;2023-01-20T11:29:48;27.30;;;12.80;;
59300;SDS011;45073;52.740;6.784;2023-01-20T11:32:24;30.13;;;12.05;;
59300;SDS011;45073;52.740;6.784;2023-01-20T11:34:56;28.00;;;11.70;;
59300;SDS011;45073;52.740;6.784;2023-01-20T11:37:24;28.33;;;13.80;;
59300;SDS011;45073;52.740;6.784;2023-01-20T11:42:20;24.17;;;11.23;;
59300;SDS011;45073;52.740;6.784;2023-01-20T11:45:01;26.98;;;11.27;;
59300;SDS011;45073;52.740;6.784;2023-01-20T11:52:36;31.33;;;13.23;;
59300;SDS011;45073;52.740;6.784;2023-01-20T11:55:23;28.38;;;13.10;;
59300;SDS011;45073;52.740;6.784;2023-01-20T12:08:16;28.98;;;12.45;;
59300;SDS011;45073;52.740;6.784;2023-01-20T12:10:47;28.60;;;13.70;;
59300;SDS011;45073;52.740;6.784;2023-01-20T12:15:50;32.33;;;14.27;;
59300;SDS011;45073;52.740;6.784;2023-01-20T12:21:12;31.88;;;14.00;;
59300;SDS011;45073;52.740;6.784;2023-01-20T12:23:50;27.42;;;11.73;;
59300;SDS011;45073;52.740;6.784;2023-01-20T12:26:32;24.65;;;12.23;;
59300;SDS011;45073;52.740;6.784;2023-01-20T12:29:21;23.50;;;11.45;;
59300;SDS011;45073;52.740;6.784;2023-01-20T12:31:49;26.23;;;11.73;;
59300;SDS011;45073;52.740;6.784;2023-01-20T12:34:26;23.65;;;11.10;;
59300;SDS011;45073;52.740;6.784;2023-01-20T12:53:21;27.58;;;11.60;;
59300;SDS011;45073;52.740;6.784;2023-01-20T12:58:56;25.10;;;11.80;;
59300;SDS011;45073;52.740;6.784;2023-01-20T13:01:37;27.85;;;13.23;;
59300;SDS011;45073;52.740;6.784;2023-01-20T13:07:12;27.38;;;13.20;;
59300;SDS011;45073;52.740;6.784;2023-01-20T13:09:49;28.83;;;13.15;;
59300;SDS011;45073;52.740;6.784;2023-01-20T13:14:50;28.23;;;14.13;;
59300;SDS011;45073;52.740;6.784;2023-01-20T13:20:37;27.40;;;14.15;;
59300;SDS011;45073;52.740;6.784;2023-01-20T13:23:05;28.92;;;14.77;;
59300;SDS011;45073;52.740;6.784;2023-01-20T13:25:33;30.40;;;13.82;;
59300;SDS011;45073;52.740;6.784;2023-01-20T13:27:59;31.88;;;15.07;;
59300;SDS011;45073;52.740;6.784;2023-01-20T13:33:04;32.90;;;15.23;;
59300;SDS011;45073;52.740;6.784;2023-01-20T13:35:40;31.52;;;16.48;;
59300;SDS011;45073;52.740;6.784;2023-01-20T13:38:17;29.75;;;14.15;;
59300;SDS011;45073;52.740;6.784;2023-01-20T13:40:49;30.20;;;15.15;;
59300;SDS011;45073;52.740;6.784;2023-01-20T13:48:31;28.88;;;14.52;;
59300;SDS011;45073;52.740;6.784;2023-01-20T13:53:45;27.10;;;13.50;;
59300;SDS011;45073;52.740;6.784;2023-01-20T13:56:32;34.85;;;16.70;;
59300;SDS011;45073;52.740;6.784;2023-01-20T13:58:57;31.17;;;15.77;;
59300;SDS011;45073;52.740;6.784;2023-01-20T14:01:23;28.50;;;13.70;;
59300;SDS011;45073;52.740;6.784;2023-01-20T14:04:05;32.00;;;13.95;;
59300;SDS011;45073;52.740;6.784;2023-01-20T14:06:48;28.23;;;14.05;;
59300;SDS011;45073;52.740;6.784;2023-01-20T14:09:23;30.33;;;15.40;;
59300;SDS011;45073;52.740;6.784;2023-01-20T14:11:50;31.77;;;14.70;;
59300;SDS011;45073;52.740;6.784;2023-01-20T14:14:19;27.92;;;13.88;;
59300;SDS011;45073;52.740;6.784;2023-01-20T14:16:46;33.00;;;14.75;;
59300;SDS011;45073;52.740;6.784;2023-01-20T14:19:28;30.02;;;13.98;;
59300;SDS011;45073;52.740;6.784;2023-01-20T14:22:00;29.55;;;13.98;;
59300;SDS011;45073;52.740;6.784;2023-01-20T14:29:38;28.30;;;13.60;;
59300;SDS011;45073;52.740;6.784;2023-01-20T14:32:16;26.95;;;12.73;;
59300;SDS011;45073;52.740;6.784;2023-01-20T14:34:45;26.20;;;13.30;;
59300;SDS011;45073;52.740;6.784;2023-01-20T14:37:30;27.65;;;13.13;;
59300;SDS011;45073;52.740;6.784;2023-01-20T14:39:59;26.20;;;14.05;;
59300;SDS011;45073;52.740;6.784;2023-01-20T14:42:30;27.05;;;13.27;;
59300;SDS011;45073;52.740;6.784;2023-01-20T14:44:56;27.80;;;11.90;;
59300;SDS011;45073;52.740;6.784;2023-01-20T14:47:22;25.38;;;12.73;;
59300;SDS011;45073;52.740;6.784;2023-01-20T14:49:50;27.98;;;13.90;;
59300;SDS011;45073;52.740;6.784;2023-01-20T14:52:25;29.67;;;13.07;;
59300;SDS011;45073;52.740;6.784;2023-01-20T14:54:53;29.88;;;13.55;;
59300;SDS011;45073;52.740;6.784;2023-01-20T14:57:33;24.35;;;13.05;;
59300;SDS011;45073;52.740;6.784;2023-01-20T15:02:36;28.80;;;15.15;;
59300;SDS011;45073;52.740;6.784;2023-01-20T15:07:45;33.72;;;15.55;;
59300;SDS011;45073;52.740;6.784;2023-01-20T15:10:13;30.40;;;15.55;;
59300;SDS011;45073;52.740;6.784;2023-01-20T15:20:41;30.50;;;16.10;;
59300;SDS011;45073;52.740;6.784;2023-01-20T15:23:18;29.52;;;15.82;;
59300;SDS011;45073;52.740;6.784;2023-01-20T15:25:46;37.70;;;17.23;;
59300;SDS011;45073;52.740;6.784;2023-01-20T15:28:20;30.52;;;17.08;;
59300;SDS011;45073;52.740;6.784;2023-01-20T15:30:53;34.28;;;16.83;;
59300;SDS011;45073;52.740;6.784;2023-01-20T15:33:21;32.75;;;16.33;;
59300;SDS011;45073;52.740;6.784;2023-01-20T15:35:52;29.85;;;15.25;;
59300;SDS011;45073;52.740;6.784;2023-01-20T15:38:22;31.63;;;17.80;;
59300;SDS011;45073;52.740;6.784;2023-01-20T15:40:48;35.75;;;15.90;;
59300;SDS011;45073;52.740;6.784;2023-01-20T15:43:15;33.47;;;16.17;;
59300;SDS011;45073;52.740;6.784;2023-01-20T15:45:42;30.83;;;16.27;;
59300;SDS011;45073;52.740;6.784;2023-01-20T15:48:26;32.85;;;17.00;;
59300;SDS011;45073;52.740;6.784;2023-01-20T15:50:51;31.05;;;15.73;;
59300;SDS011;45073;52.740;6.784;2023-01-20T15:53:17;32.72;;;17.25;;
59300;SDS011;45073;52.740;6.784;2023-01-20T15:55:49;35.17;;;18.80;;
59300;SDS011;45073;52.740;6.784;2023-01-20T15:58:20;35.35;;;17.45;;
59300;SDS011;45073;52.740;6.784;2023-01-20T16:00:48;35.97;;;18.20;;
59300;SDS011;45073;52.740;6.784;2023-01-20T16:03:14;38.88;;;17.50;;
59300;SDS011;45073;52.740;6.784;2023-01-20T16:05:39;35.13;;;16.65;;
59300;SDS011;45073;52.740;6.784;2023-01-20T16:08:11;32.45;;;15.65;;
59300;SDS011;45073;52.740;6.784;2023-01-20T16:10:38;34.42;;;17.58;;
59300;SDS011;45073;52.740;6.784;2023-01-20T16:13:04;35.55;;;18.83;;
59300;SDS011;45073;52.740;6.784;2023-01-20T16:15:31;37.65;;;19.08;;
59300;SDS011;45073;52.740;6.784;2023-01-20T16:17:57;32.25;;;16.83;;
59300;SDS011;45073;52.740;6.784;2023-01-20T16:20:23;34.80;;;17.73;;
59300;SDS011;45073;52.740;6.784;2023-01-20T16:22:50;35.92;;;17.35;;
59300;SDS011;45073;52.740;6.784;2023-01-20T16:25:16;32.03;;;16.67;;
59300;SDS011;45073;52.740;6.784;2023-01-20T16:27:42;36.95;;;17.58;;
59300;SDS011;45073;52.740;6.784;2023-01-20T16:30:18;33.95;;;17.60;;
59300;SDS011;45073;52.740;6.784;2023-01-20T16:32:45;37.92;;;18.25;;
59300;SDS011;45073;52.740;6.784;2023-01-20T16:35:12;31.95;;;16.65;;
59300;SDS011;45073;52.740;6.784;2023-01-20T16:37:38;34.53;;;17.77;;
59300;SDS011;45073;52.740;6.784;2023-01-20T16:40:04;33.97;;;16.10;;
59300;SDS011;45073;52.740;6.784;2023-01-20T16:42:30;35.47;;;18.00;;
59300;SDS011;45073;52.740;6.784;2023-01-20T16:44:56;34.78;;;17.77;;
59300;SDS011;45073;52.740;6.784;2023-01-20T16:47:21;38.35;;;18.13;;
59300;SDS011;45073;52.740;6.784;2023-01-20T16:49:47;32.92;;;17.92;;
59300;SDS011;45073;52.740;6.784;2023-01-20T16:52:12;34.97;;;17.38;;
59300;SDS011;45073;52.740;6.784;2023-01-20T16:54:38;37.42;;;19.70;;
59300;SDS011;45073;52.740;6.784;2023-01-20T16:57:04;35.42;;;17.98;;
59300;SDS011;45073;52.740;6.784;2023-01-20T16:59:29;37.10;;;18.17;;